Terminal Aerodrome Forecast
Issued by NWS Flagstaff, AZ

Home | Current Version | Previous Version | Text Only | Print | Product List | Glossary On
Versions: 1 2 3 4 5 6 7 8 9 10 11 12 13 14 15 16 17 18 19 20 21 22
000
FTUS45 KFGZ 251800 AAA
TAFFLG
TAF AMD
KFLG 251824Z 2518/2618 23014G28KT 5SM -SHSN BKN030 OVC050
      TEMPO 2518/2522 2SM -SHSN BKN015
     FM260000 28010KT P6SM SCT030 BKN050 PROB30 2606/2612 4SM -SHSN
      BKN010
     FM261200 VRB03KT P6SM FEW030=

USA.gov is the U.S. government's official web portal to all federal, state and local government web resources and services.